Rutland, VT

6:37 PM EDT on May 25, 2017 (GMT -0400)
Rutland State

Weather History for KRUT - October, 2014

Change the Weather History Date:

Thursday, October 16, 2014

  Actual Average Record
Temperature  
Mean Temperature 66 °F -  
Max Temperature 72 °F - 81 °F (1956)
Min Temperature 59 °F - 22 °F (1978)
Degree Days  
Heating Degree Days 0    
Month to date heating degree days 162  
Since 1 July heating degree days 424  
Cooling Degree Days 1    
Month to date cooling degree days 10  
Year to date cooling degree days 280  
Growing Degree Days 16 (Base 50)    
Moisture  
Dew Point 62 °F    
Average Humidity 86    
Maximum Humidity 93    
Minimum Humidity 78    
Precipitation  
Precipitation 0.00 in - 0.74 in (2000)
Month to date precipitation 0.21  
Year to date precipitation 23.02  
Sea Level Pressure  
Sea Level Pressure 29.75 in    
Wind  
Wind Speed 10 mph (SE)    
Max Wind Speed 16 mph    
Max Gust Speed 21 mph    
Visibility 9 miles    
Events      
T = Trace of Precipitation, MM = Missing Value Source: NWS Daily Summary

Daily Weather History Graph

Daily Weather History Graph

Search for Another Location

Airport or City:

Trip Planner

Search our weather history database for the weather conditions in past years. The results will help you decide how hot, cold, wet, or windy it might be!

Date:

Astronomy

Oct. 16, 2014 Rise Set
Actual Time 7:07 AM EDT 6:06 PM EDT
Civil Twilight 6:38 AM EDT 6:35 PM EDT
Nautical Twilight 6:04 AM EDT 7:08 PM EDT
Astronomical Twilight 5:31 AM EDT 7:42 PM EDT
Moon 12:03 AM EDT (10/16) 2:27 PM EDT (10/16)
Length of Visible Light 11h 57m
Length of Day
10h 59m
Last Quarter, 42% of the Moon is Illuminated
Oct 16
Last Quarter
Oct 23
New
Oct 30
First Quarter
Nov 6
Full
Nov 14
Last Quarter

Hourly Weather History & Observations

Time (EDT) Temp. Dew Point Humidity Pressure Visibility Wind Dir Wind Speed Gust Speed Precip Events Conditions
12:15 AM 69.8 °F 62.6 °F 78% 29.90 in 10.0 mi SE 13.8 mph - N/A   Overcast
12:35 AM 69.8 °F 62.6 °F 78% 29.89 in 10.0 mi ESE 13.8 mph - N/A   Mostly Cloudy
12:55 AM 69.8 °F 62.6 °F 78% 29.89 in 10.0 mi ESE 11.5 mph - N/A   Mostly Cloudy
1:15 AM 69.8 °F 62.6 °F 78% 29.89 in 10.0 mi SE 12.7 mph 17.3 mph N/A   Overcast
1:35 AM 68.0 °F 64.4 °F 88% 29.88 in 10.0 mi SSE 6.9 mph - N/A   Overcast
1:55 AM 68.0 °F 64.4 °F 88% 29.88 in 10.0 mi SE 10.4 mph - N/A   Overcast
2:15 AM 68.0 °F 64.4 °F 88% 29.88 in 10.0 mi SE 10.4 mph - N/A   Mostly Cloudy
2:35 AM 68.0 °F 64.4 °F 88% 29.87 in 10.0 mi SE 10.4 mph - N/A   Overcast
2:55 AM 66.2 °F 64.4 °F 94% 29.87 in 7.0 mi SE 6.9 mph - N/A   Overcast
3:15 AM 66.2 °F 64.4 °F 94% 29.86 in 10.0 mi SE 11.5 mph - N/A   Mostly Cloudy
3:35 AM 66.2 °F 64.4 °F 94% 29.84 in 10.0 mi Calm Calm - N/A   Overcast
3:55 AM 68.0 °F 64.4 °F 88% 29.84 in 10.0 mi South 5.8 mph - N/A   Overcast
4:15 AM 68.0 °F 64.4 °F 88% 29.84 in 10.0 mi South 8.1 mph - N/A   Overcast
4:35 AM 66.2 °F 64.4 °F 94% 29.83 in 5.0 mi ESE 9.2 mph - N/A   Overcast
4:55 AM 66.2 °F 64.4 °F 94% 29.83 in 10.0 mi SSE 9.2 mph - N/A   Overcast
5:15 AM 66.2 °F 64.4 °F 94% 29.82 in 8.0 mi SSE 6.9 mph - N/A   Overcast
5:35 AM 66.2 °F 64.4 °F 94% 29.83 in 8.0 mi SE 12.7 mph - N/A   Overcast
5:55 AM 66.2 °F 64.4 °F 94% 29.82 in 10.0 mi SE 11.5 mph - N/A   Overcast
6:15 AM 66.2 °F 64.4 °F 94% 29.82 in 10.0 mi SE 11.5 mph 16.1 mph N/A   Mostly Cloudy
6:35 AM 66.2 °F 64.4 °F 94% 29.82 in 10.0 mi SE 10.4 mph - N/A   Overcast
6:55 AM 66.2 °F 64.4 °F 94% 29.82 in 9.0 mi SE 12.7 mph - N/A   Overcast
7:15 AM 66.2 °F 64.4 °F 94% 29.81 in 7.0 mi ESE 11.5 mph - N/A   Overcast
7:35 AM 66.2 °F 64.4 °F 94% 29.81 in 10.0 mi SE 11.5 mph 17.3 mph N/A   Mostly Cloudy
7:55 AM 66.2 °F 64.4 °F 94% 29.82 in 8.0 mi SSE 11.5 mph 18.4 mph N/A   Overcast
8:15 AM 66.2 °F 64.4 °F 94% 29.83 in 5.0 mi SE 10.4 mph - N/A   Overcast
8:35 AM 66.2 °F 64.4 °F 94% 29.81 in 5.0 mi SE 8.1 mph - N/A   Mostly Cloudy
8:55 AM 66.2 °F 64.4 °F 94% 29.81 in 4.0 mi ESE 9.2 mph - N/A   Mostly Cloudy
9:15 AM 66.2 °F 64.4 °F 94% 29.80 in 4.0 mi SE 11.5 mph 16.1 mph N/A   Overcast
9:35 AM 66.2 °F 64.4 °F 94% 29.79 in 3.0 mi SE 9.2 mph - N/A   Overcast
9:55 AM 68.0 °F 64.4 °F 88% 29.79 in 9.0 mi SE 11.5 mph 19.6 mph N/A   Mostly Cloudy
10:15 AM 66.2 °F 64.4 °F 94% 29.79 in 2.5 mi SE 11.5 mph - N/A   Overcast
10:35 AM 66.2 °F 66.2 °F 100% 29.79 in 2.0 mi South 5.8 mph - N/A   Overcast
10:55 AM 69.8 °F 66.2 °F 88% 29.77 in 10.0 mi SE 12.7 mph - N/A   Mostly Cloudy
11:15 AM 69.8 °F 66.2 °F 88% 29.78 in 10.0 mi South 8.1 mph - N/A   Overcast
11:35 AM 69.8 °F 66.2 °F 88% 29.78 in 10.0 mi SE 13.8 mph - N/A   Overcast
11:55 AM 69.8 °F 66.2 °F 88% 29.77 in 10.0 mi SSE 9.2 mph 16.1 mph N/A   Overcast
12:15 PM 71.6 °F 64.4 °F 78% 29.76 in 10.0 mi SE 17.3 mph 20.7 mph N/A   Overcast
12:35 PM 71.6 °F 64.4 °F 78% 29.75 in 10.0 mi SE 11.5 mph - N/A   Overcast
12:55 PM 71.6 °F 64.4 °F 78% 29.74 in 10.0 mi SE 16.1 mph 20.7 mph N/A   Overcast
1:15 PM 69.8 °F 64.4 °F 83% 29.74 in 10.0 mi SE 13.8 mph 19.6 mph N/A   Overcast
1:35 PM 68.0 °F 64.4 °F 88% 29.74 in 10.0 mi SE 15.0 mph - N/A   Overcast
1:55 PM 68.0 °F 64.4 °F 88% 29.73 in 10.0 mi SE 10.4 mph - N/A   Mostly Cloudy
2:15 PM 68.0 °F 64.4 °F 88% 29.71 in 10.0 mi SSE 9.2 mph - N/A   Overcast
2:35 PM 68.0 °F 64.4 °F 88% 29.70 in 10.0 mi SE 11.5 mph - N/A   Overcast
2:55 PM 68.0 °F 64.4 °F 88% 29.69 in 10.0 mi SE 9.2 mph - N/A   Mostly Cloudy
3:15 PM 68.0 °F 64.4 °F 88% 29.65 in 10.0 mi ESE 17.3 mph 23.0 mph N/A   Mostly Cloudy
3:35 PM 69.8 °F 64.4 °F 83% 29.66 in 10.0 mi SSE 13.8 mph 23.0 mph N/A   Scattered Clouds
3:55 PM 69.8 °F 64.4 °F 83% 29.66 in 10.0 mi South 13.8 mph 17.3 mph N/A   Mostly Cloudy
4:15 PM 69.8 °F 62.6 °F 78% 29.66 in 10.0 mi SE 13.8 mph 18.4 mph N/A   Overcast
4:35 PM 69.8 °F 64.4 °F 83% 29.66 in 10.0 mi SE 12.7 mph - N/A   Overcast
4:55 PM 68.0 °F 64.4 °F 88% 29.65 in 10.0 mi SE 12.7 mph - N/A   Overcast
5:15 PM 66.2 °F 64.4 °F 94% 29.65 in 10.0 mi SE 10.4 mph 19.6 mph N/A   Overcast
5:35 PM 68.0 °F 62.6 °F 83% 29.65 in 10.0 mi SSE 15.0 mph - N/A   Mostly Cloudy
5:55 PM 66.2 °F 64.4 °F 94% 29.66 in 4.0 mi South 6.9 mph - N/A   Overcast
6:15 PM 66.2 °F 62.6 °F 88% 29.65 in 10.0 mi SSE 11.5 mph 19.6 mph N/A   Mostly Cloudy
6:35 PM 66.2 °F 60.8 °F 83% 29.65 in 10.0 mi South 13.8 mph 21.9 mph N/A   Mostly Cloudy
6:55 PM 66.2 °F 59.0 °F 78% 29.66 in 10.0 mi SSE 13.8 mph 18.4 mph N/A   Overcast
7:15 PM 66.2 °F 57.2 °F 73% 29.65 in 10.0 mi SSE 17.3 mph 23.0 mph N/A   Mostly Cloudy
7:35 PM 64.4 °F 57.2 °F 77% 29.66 in 10.0 mi South 11.5 mph - N/A   Partly Cloudy
7:55 PM 64.4 °F 57.2 °F 77% 29.66 in 10.0 mi SSE 12.7 mph - N/A   Clear
8:15 PM 64.4 °F 57.2 °F 77% 29.67 in 10.0 mi South 6.9 mph - N/A   Clear
8:35 PM 64.4 °F 55.4 °F 73% 29.67 in 10.0 mi SSE 9.2 mph - N/A   Clear
8:55 PM 62.6 °F 55.4 °F 77% 29.67 in 10.0 mi South 9.2 mph - N/A   Clear
9:15 PM 62.6 °F 55.4 °F 77% 29.67 in 10.0 mi SSE 6.9 mph - N/A   Clear
9:35 PM 60.8 °F 55.4 °F 82% 29.67 in 10.0 mi SE 6.9 mph - N/A   Clear
9:55 PM 60.8 °F 55.4 °F 82% 29.67 in 10.0 mi ESE 8.1 mph - N/A   Clear
10:15 PM 60.8 °F 55.4 °F 82% 29.68 in 10.0 mi SE 5.8 mph - N/A   Clear
10:35 PM 60.8 °F 55.4 °F 82% 29.68 in 10.0 mi SSE 9.2 mph - N/A   Clear
10:55 PM 60.8 °F 53.6 °F 77% 29.67 in 10.0 mi SE 8.1 mph - N/A   Clear
11:15 PM 60.8 °F 53.6 °F 77% 29.67 in 10.0 mi SSE 6.9 mph - N/A   Clear
11:35 PM 60.8 °F 53.6 °F 77% 29.67 in 10.0 mi SE 9.2 mph - N/A   Clear
11:55 PM 59.0 °F 53.6 °F 82% 29.66 in 10.0 mi SE 5.8 mph - N/A   Clear